createdAt,value
2023-04-02T00:01:04.987Z,9.80
2023-04-02T00:03:07.297Z,9.85
2023-04-02T00:05:14.601Z,8.27
2023-04-02T00:07:28.090Z,9.82
2023-04-02T00:09:32.897Z,10.25
2023-04-02T00:11:37.143Z,10.52
2023-04-02T00:13:44.967Z,10.35
2023-04-02T00:15:49.112Z,11.48
2023-04-02T00:17:50.520Z,10.23
2023-04-02T00:20:05.565Z,10.07
2023-04-02T00:22:12.589Z,10.77
2023-04-02T00:24:17.910Z,10.40
2023-04-02T00:26:31.989Z,10.27
2023-04-02T00:30:35.185Z,11.02
2023-04-02T00:32:37.131Z,11.48
2023-04-02T00:34:39.714Z,10.48
2023-04-02T00:36:43.328Z,13.13
2023-04-02T00:40:49.946Z,11.18
2023-04-02T00:42:54.166Z,10.57
2023-04-02T00:44:55.873Z,12.70
2023-04-02T00:46:57.569Z,10.93
2023-04-02T00:49:10.415Z,10.75
2023-04-02T00:51:19.637Z,11.05
2023-04-02T00:53:27.567Z,12.13
2023-04-02T00:55:38.049Z,10.40
2023-04-02T00:57:42.941Z,10.98
2023-04-02T01:00:19.164Z,10.65
2023-04-02T01:02:28.542Z,10.02
2023-04-02T01:04:31.964Z,10.00
2023-04-02T01:06:37.349Z,11.23
2023-04-02T01:09:03.242Z,10.20
2023-04-02T01:11:12.556Z,10.05
2023-04-02T01:13:31.905Z,9.85
2023-04-02T01:15:38.987Z,9.75
2023-04-02T01:18:08.264Z,10.48
2023-04-02T01:20:28.394Z,9.30
2023-04-02T01:22:57.783Z,10.48
2023-04-02T01:24:59.523Z,9.40
2023-04-02T01:27:13.016Z,9.75
2023-04-02T01:29:18.604Z,8.77
2023-04-02T01:31:21.403Z,8.82
2023-04-02T01:33:29.868Z,7.90
2023-04-02T01:35:37.661Z,8.35
2023-04-02T01:37:50.081Z,8.38
2023-04-02T01:40:03.127Z,8.25
2023-04-02T01:42:18.675Z,7.57
2023-04-02T01:44:32.228Z,8.57
2023-04-02T01:46:35.403Z,7.93
2023-04-02T01:48:39.392Z,7.32
2023-04-02T01:50:42.807Z,8.25
2023-04-02T01:52:46.048Z,8.18
2023-04-02T01:54:47.719Z,8.13
2023-04-02T01:56:50.848Z,7.20
2023-04-02T01:58:52.321Z,7.20
2023-04-02T02:00:56.787Z,7.95
2023-04-02T02:03:00.640Z,7.47
2023-04-02T02:05:02.266Z,7.80
2023-04-02T02:07:04.695Z,7.78
2023-04-02T02:09:08.047Z,9.57
2023-04-02T02:11:15.467Z,9.07
2023-04-02T02:13:17.091Z,9.15
2023-04-02T02:15:21.016Z,13.25
2023-04-02T02:17:30.023Z,6.75
2023-04-02T02:19:38.752Z,10.43
2023-04-02T02:21:45.873Z,18.15
2023-04-02T02:23:47.307Z,18.88
2023-04-02T02:25:49.342Z,13.23
2023-04-02T02:27:59.948Z,20.35
2023-04-02T02:30:09.967Z,8.00
2023-04-02T02:32:13.797Z,10.13
2023-04-02T02:34:20.667Z,12.95
2023-04-02T02:36:34.979Z,13.30
2023-04-02T02:38:39.071Z,8.82
2023-04-02T02:40:44.986Z,9.40
2023-04-02T02:42:54.960Z,10.75
2023-04-02T02:44:58.027Z,10.32
2023-04-02T02:47:03.612Z,9.13
2023-04-02T02:49:06.196Z,7.80
2023-04-02T02:51:17.162Z,10.73
2023-04-02T02:53:24.403Z,8.50
2023-04-02T02:55:31.599Z,8.40
2023-04-02T02:57:38.885Z,8.38
2023-04-02T02:59:42.328Z,9.68
2023-04-02T03:01:45.463Z,9.07
2023-04-02T03:03:48.868Z,8.55
2023-04-02T03:05:54.915Z,8.50
2023-04-02T03:07:58.086Z,8.07
2023-04-02T03:10:17.523Z,7.25
2023-04-02T03:12:56.499Z,7.93
2023-04-02T03:15:27.291Z,8.57
2023-04-02T03:17:42.710Z,8.02
2023-04-02T03:19:50.415Z,36.63
2023-04-02T03:21:56.966Z,40.10
2023-04-02T03:24:03.405Z,29.92
2023-04-02T03:26:12.187Z,15.18
2023-04-02T03:28:20.580Z,10.68
2023-04-02T03:30:35.348Z,11.95
2023-04-02T03:32:40.340Z,11.55
2023-04-02T03:34:46.680Z,13.68
2023-04-02T03:36:56.961Z,9.23
2023-04-02T03:39:09.064Z,11.50
2023-04-02T03:41:16.986Z,10.85
2023-04-02T03:43:27.227Z,11.60
2023-04-02T03:45:36.047Z,10.38
2023-04-02T03:47:47.151Z,9.95
2023-04-02T03:50:13.164Z,10.10
2023-04-02T03:52:27.585Z,6.43
2023-04-02T03:54:29.641Z,9.70
2023-04-02T03:56:36.883Z,8.10
2023-04-02T03:58:44.286Z,8.48
2023-04-02T04:01:00.913Z,7.80
2023-04-02T04:03:12.808Z,6.93
2023-04-02T04:05:23.039Z,7.45
2023-04-02T04:07:44.894Z,11.30
2023-04-02T04:09:50.492Z,13.77
2023-04-02T04:11:57.045Z,12.85
2023-04-02T04:14:06.054Z,11.68
2023-04-02T04:16:13.379Z,11.73
2023-04-02T04:18:17.568Z,10.45
2023-04-02T04:20:23.950Z,8.32
2023-04-02T04:22:28.374Z,7.32
2023-04-02T04:24:29.939Z,8.10
2023-04-02T04:26:43.351Z,8.05
2023-04-02T04:29:09.522Z,6.93
2023-04-02T04:31:22.263Z,6.53
2023-04-02T04:33:28.941Z,5.93
2023-04-02T04:35:37.596Z,5.90
2023-04-02T04:37:43.296Z,6.00
2023-04-02T04:39:50.467Z,8.18
2023-04-02T04:41:54.192Z,8.88
2023-04-02T04:44:15.567Z,6.03
2023-04-02T04:46:23.413Z,6.35
2023-04-02T04:48:29.701Z,6.90
2023-04-02T04:50:37.514Z,5.30
2023-04-02T04:52:40.984Z,6.95
2023-04-02T04:54:42.474Z,6.10
2023-04-02T04:56:55.173Z,6.53
2023-04-02T04:59:18.578Z,4.90
2023-04-02T05:01:45.998Z,5.55
2023-04-02T05:04:06.310Z,5.97
2023-04-02T05:06:18.372Z,6.20
2023-04-02T05:08:25.937Z,5.60
2023-04-02T05:10:42.604Z,7.65
2023-04-02T05:12:51.245Z,5.95
2023-04-02T05:15:07.850Z,5.97
2023-04-02T05:17:20.995Z,9.02
2023-04-02T05:19:34.995Z,9.43
2023-04-02T05:23:46.173Z,6.90
2023-04-02T05:26:06.704Z,6.40
2023-04-02T05:28:20.959Z,5.72
2023-04-02T05:30:28.540Z,5.40
2023-04-02T05:32:38.047Z,5.47
2023-04-02T05:34:42.471Z,6.57
2023-04-02T05:36:46.224Z,5.85
2023-04-02T05:38:50.066Z,6.45
2023-04-02T05:41:00.166Z,5.93
2023-04-02T05:43:04.094Z,7.22
2023-04-02T05:45:15.920Z,6.13
2023-04-02T05:47:25.213Z,5.60
2023-04-02T05:49:32.340Z,7.65
2023-04-02T05:51:44.774Z,5.90
2023-04-02T05:53:57.315Z,6.05
2023-04-02T05:56:17.844Z,8.82
2023-04-02T05:58:36.728Z,6.43
2023-04-02T06:00:38.611Z,6.50
2023-04-02T06:02:47.417Z,6.28
2023-04-02T06:04:56.229Z,6.15
2023-04-02T06:07:06.809Z,7.10
2023-04-02T06:09:28.411Z,8.23
2023-04-02T06:11:40.039Z,10.73
2023-04-02T06:13:41.447Z,7.00
2023-04-02T06:15:43.707Z,7.03
2023-04-02T06:18:00.139Z,9.77
2023-04-02T06:20:03.824Z,7.20
2023-04-02T06:24:36.997Z,10.80
2023-04-02T06:26:42.573Z,9.93
2023-04-02T06:28:47.643Z,17.48
2023-04-02T06:30:49.976Z,16.42
2023-04-02T06:32:51.403Z,15.32
2023-04-02T06:34:53.616Z,14.45
2023-04-02T06:36:58.438Z,10.15
2023-04-02T06:39:07.553Z,9.23
2023-04-02T06:41:19.495Z,10.50
2023-04-02T06:43:36.723Z,8.32
2023-04-02T06:45:41.819Z,13.02
2023-04-02T06:47:46.868Z,16.80
2023-04-02T06:50:05.594Z,10.20
2023-04-02T06:52:19.424Z,18.35
2023-04-02T06:54:21.838Z,12.23
2023-04-02T06:56:44.539Z,13.15
2023-04-02T06:58:45.974Z,10.93
2023-04-02T07:00:50.183Z,17.80
2023-04-02T07:02:53.419Z,10.95
2023-04-02T07:05:04.000Z,15.05
2023-04-02T07:07:05.745Z,15.15
2023-04-02T07:09:07.601Z,9.07
2023-04-02T07:11:14.605Z,8.10
2023-04-02T07:13:18.725Z,16.67
2023-04-02T07:15:20.214Z,25.70
2023-04-02T07:17:22.235Z,24.55
2023-04-02T07:19:24.610Z,23.42
2023-04-02T07:21:27.428Z,35.65
2023-04-02T07:23:28.901Z,35.30
2023-04-02T07:25:30.561Z,34.30
2023-04-02T07:27:31.962Z,28.40
2023-04-02T07:29:33.356Z,25.63
2023-04-02T07:31:35.133Z,25.80
2023-04-02T07:33:36.554Z,28.40
2023-04-02T07:35:38.373Z,28.13
2023-04-02T07:37:40.308Z,24.35
2023-04-02T07:39:41.734Z,43.92
2023-04-02T07:41:57.380Z,23.00
2023-04-02T07:43:59.208Z,33.53
2023-04-02T07:46:00.647Z,28.60
2023-04-02T07:48:10.304Z,37.65
2023-04-02T07:50:12.146Z,47.38
2023-04-02T07:52:13.547Z,12.70
2023-04-02T07:54:14.963Z,46.63
2023-04-02T07:56:20.643Z,33.88
2023-04-02T07:58:22.349Z,12.40
2023-04-02T08:00:24.811Z,19.45
2023-04-02T08:02:27.279Z,13.82
2023-04-02T08:04:28.768Z,19.38
2023-04-02T08:06:30.579Z,28.25
2023-04-02T08:08:32.310Z,22.30
2023-04-02T08:10:33.726Z,29.73
2023-04-02T08:12:35.340Z,56.88
2023-04-02T08:14:37.321Z,31.13
2023-04-02T08:16:53.472Z,35.15
2023-04-02T08:18:54.992Z,26.02
2023-04-02T08:20:57.567Z,9.32
2023-04-02T08:22:59.047Z,9.15
2023-04-02T08:25:00.453Z,10.30
2023-04-02T08:27:02.284Z,14.30
2023-04-02T08:29:04.159Z,10.20
2023-04-02T08:31:05.694Z,11.85
2023-04-02T08:33:07.558Z,7.68
2023-04-02T08:35:11.494Z,20.45
2023-04-02T08:37:13.337Z,25.15
2023-04-02T08:39:14.937Z,21.13
2023-04-02T08:41:22.819Z,14.85
2023-04-02T08:43:42.016Z,17.17
2023-04-02T08:46:18.966Z,21.15
2023-04-02T08:48:20.473Z,20.27
2023-04-02T08:50:35.920Z,21.25
2023-04-02T08:52:38.908Z,23.65
2023-04-02T08:54:41.907Z,28.67
2023-04-02T08:57:22.483Z,12.50
2023-04-02T08:59:34.135Z,12.88
2023-04-02T09:01:44.754Z,22.20
2023-04-02T09:03:49.465Z,23.75
2023-04-02T09:05:52.920Z,15.13
2023-04-02T09:07:58.467Z,12.38
2023-04-02T09:10:00.613Z,30.65
2023-04-02T09:12:04.053Z,28.35
2023-04-02T09:14:19.535Z,24.38
2023-04-02T09:16:34.044Z,12.40
2023-04-02T09:18:36.942Z,9.65
2023-04-02T09:20:38.518Z,8.67
2023-04-02T09:22:39.968Z,12.80
2023-04-02T09:24:41.973Z,16.70
2023-04-02T09:26:43.402Z,15.27
2023-04-02T09:28:44.910Z,9.63
2023-04-02T09:31:19.199Z,10.77
2023-04-02T09:33:34.559Z,10.68
2023-04-02T09:35:51.364Z,9.65
2023-04-02T09:38:16.049Z,7.57
2023-04-02T09:40:23.667Z,10.15
2023-04-02T09:42:32.261Z,30.17
2023-04-02T09:44:34.145Z,9.73
2023-04-02T09:46:35.641Z,10.98
2023-04-02T09:48:40.781Z,6.70
2023-04-02T09:50:42.703Z,7.15
2023-04-02T09:52:44.144Z,8.50
2023-04-02T09:54:47.313Z,6.00
2023-04-02T09:57:03.774Z,14.50
2023-04-02T09:59:19.729Z,7.32
2023-04-02T10:01:28.582Z,11.55
2023-04-02T10:03:33.218Z,17.65
2023-04-02T10:07:42.852Z,11.18
2023-04-02T10:09:44.754Z,15.02
2023-04-02T10:11:47.028Z,14.68
2023-04-02T10:13:54.218Z,21.08
2023-04-02T10:16:01.111Z,15.40
2023-04-02T10:18:11.811Z,22.58
2023-04-02T10:20:24.072Z,20.92
2023-04-02T10:22:28.306Z,11.68
2023-04-02T10:24:29.787Z,14.07
2023-04-02T10:26:34.175Z,23.83
2023-04-02T10:28:51.029Z,16.83
2023-04-02T10:31:16.650Z,16.80
2023-04-02T10:33:32.627Z,12.02
2023-04-02T10:35:48.368Z,22.92
2023-04-02T10:38:11.829Z,21.50
2023-04-02T10:40:16.287Z,11.20
2023-04-02T10:42:31.825Z,14.57
2023-04-02T10:44:44.590Z,18.55
2023-04-02T10:47:06.154Z,14.23
2023-04-02T10:49:32.635Z,14.95
2023-04-02T10:52:08.954Z,15.30
2023-04-02T10:54:19.488Z,23.00
2023-04-02T10:56:23.116Z,18.58
2023-04-02T11:00:30.231Z,12.15
2023-04-02T11:02:46.594Z,18.45
2023-04-02T11:04:48.385Z,116.30
2023-04-02T11:07:14.993Z,22.55
2023-04-02T11:09:25.534Z,32.25
2023-04-02T11:11:36.034Z,30.45
2023-04-02T11:13:58.051Z,40.38
2023-04-02T11:15:59.688Z,42.08
2023-04-02T11:18:01.395Z,40.60
2023-04-02T11:20:40.750Z,29.48
2023-04-02T11:22:42.779Z,29.98
2023-04-02T11:24:48.117Z,27.65
2023-04-02T11:26:50.189Z,29.10
2023-04-02T11:29:02.317Z,43.92
2023-04-02T11:31:04.191Z,37.40
2023-04-02T11:33:38.292Z,30.45
2023-04-02T11:35:41.826Z,31.65
2023-04-02T11:37:45.392Z,31.85
2023-04-02T11:39:51.514Z,38.33
2023-04-02T11:42:19.255Z,44.35
2023-04-02T11:44:24.494Z,39.40
2023-04-02T11:46:28.654Z,39.75
2023-04-02T11:48:32.653Z,14.80
2023-04-02T11:50:36.303Z,12.65
2023-04-02T11:52:51.894Z,13.10
2023-04-02T11:55:04.767Z,12.40
2023-04-02T11:57:24.576Z,30.50
2023-04-02T11:59:58.332Z,41.13
2023-04-02T12:02:21.355Z,25.23
2023-04-02T12:04:43.266Z,17.85
2023-04-02T12:06:44.654Z,15.02
2023-04-02T12:09:23.832Z,29.20
2023-04-02T12:11:33.343Z,13.65
2023-04-02T12:13:40.833Z,15.20
2023-04-02T12:15:47.159Z,21.67
2023-04-02T12:17:48.622Z,30.15
2023-04-02T12:19:52.313Z,35.47
2023-04-02T12:23:58.486Z,30.48
2023-04-02T12:26:02.981Z,16.67
2023-04-02T12:28:14.520Z,14.38
2023-04-02T12:30:21.736Z,12.05
2023-04-02T12:32:29.935Z,18.92
2023-04-02T12:34:31.906Z,35.00
2023-04-02T12:36:33.344Z,55.85
2023-04-02T12:38:43.079Z,86.65
2023-04-02T12:40:58.913Z,100.72
2023-04-02T12:43:00.356Z,137.88
2023-04-02T12:45:03.486Z,122.18
2023-04-02T12:47:05.208Z,102.68
2023-04-02T12:49:34.172Z,27.85
2023-04-02T12:51:36.821Z,35.90
2023-04-02T12:53:41.121Z,35.00
2023-04-02T12:55:47.343Z,20.30
2023-04-02T12:57:48.937Z,32.67
2023-04-02T12:59:50.695Z,23.92
2023-04-02T13:01:57.691Z,43.78
2023-04-02T13:04:17.189Z,46.63
2023-04-02T13:06:24.272Z,28.20
2023-04-02T13:08:29.469Z,18.95
2023-04-02T13:10:31.225Z,29.38
2023-04-02T13:12:36.397Z,43.53
2023-04-02T13:14:38.089Z,40.72
2023-04-02T13:16:39.598Z,23.17
2023-04-02T13:18:42.693Z,18.13
2023-04-02T13:20:55.304Z,44.47
2023-04-02T13:22:58.402Z,27.77
2023-04-02T13:25:00.078Z,17.25
2023-04-02T13:27:02.779Z,24.48
2023-04-02T13:29:18.953Z,26.80
2023-04-02T13:31:20.628Z,41.75
2023-04-02T13:33:22.160Z,19.05
2023-04-02T13:35:23.602Z,29.95
2023-04-02T13:37:25.587Z,19.25
2023-04-02T13:39:27.276Z,16.60
2023-04-02T13:41:30.998Z,21.27
2023-04-02T13:43:32.718Z,51.25
2023-04-02T13:45:37.630Z,30.52
2023-04-02T13:47:41.143Z,29.85
2023-04-02T13:49:43.064Z,20.73
2023-04-02T13:51:52.433Z,26.58
2023-04-02T13:53:57.455Z,22.20
2023-04-02T13:55:59.510Z,21.80
2023-04-02T13:58:01.028Z,33.47
2023-04-02T14:00:04.028Z,29.75
2023-04-02T14:02:12.863Z,26.55
2023-04-02T14:04:20.188Z,18.63
2023-04-02T14:06:49.517Z,22.02
2023-04-02T14:08:53.943Z,23.13
2023-04-02T14:11:11.094Z,22.25
2023-04-02T14:13:18.219Z,19.52
2023-04-02T14:15:28.137Z,18.80
2023-04-02T14:17:46.258Z,25.50
2023-04-02T14:20:29.171Z,24.42
2023-04-02T14:22:37.326Z,18.65
2023-04-02T14:25:08.445Z,28.75
2023-04-02T14:27:40.510Z,37.60
2023-04-02T14:30:08.703Z,18.70
2023-04-02T14:32:19.286Z,17.58
2023-04-02T14:34:40.676Z,56.95
2023-04-02T14:36:57.989Z,38.45
2023-04-02T14:39:13.570Z,31.17
2023-04-02T14:41:23.840Z,17.55
2023-04-02T14:43:29.998Z,28.85
2023-04-02T14:45:40.592Z,25.83
2023-04-02T14:47:53.153Z,38.08
2023-04-02T14:50:00.812Z,33.72
2023-04-02T14:52:04.797Z,49.25
2023-04-02T14:54:20.974Z,58.63
2023-04-02T14:56:24.773Z,70.45
2023-04-02T14:58:44.589Z,21.85
2023-04-02T15:00:56.220Z,41.83
2023-04-02T15:03:21.485Z,37.10
2023-04-02T15:05:31.622Z,32.38
2023-04-02T15:07:43.698Z,92.10
2023-04-02T15:09:53.171Z,64.85
2023-04-02T15:11:59.712Z,65.05
2023-04-02T15:14:17.880Z,66.82
2023-04-02T15:16:21.786Z,26.55
2023-04-02T15:18:23.439Z,42.67
2023-04-02T15:20:25.765Z,34.75
2023-04-02T15:22:47.218Z,44.97
2023-04-02T15:25:09.089Z,45.85
2023-04-02T15:27:24.024Z,66.55
2023-04-02T15:30:08.916Z,67.25
2023-04-02T15:32:32.427Z,54.05
2023-04-02T15:35:00.774Z,27.63
2023-04-02T15:37:19.841Z,26.85
2023-04-02T15:39:51.909Z,21.50
2023-04-02T15:42:08.526Z,21.92
2023-04-02T15:44:15.282Z,20.63
2023-04-02T15:46:37.297Z,11.65
2023-04-02T15:49:03.715Z,9.60
2023-04-02T15:51:07.998Z,18.15
2023-04-02T15:53:28.362Z,24.30
2023-04-02T15:55:39.637Z,16.15
2023-04-02T15:58:05.081Z,19.73
2023-04-02T16:00:24.861Z,9.20
2023-04-02T16:02:35.336Z,20.52
2023-04-02T16:04:50.410Z,24.33
2023-04-02T16:07:29.707Z,23.95
2023-04-02T16:09:43.250Z,16.20
2023-04-02T16:11:44.679Z,24.25
2023-04-02T16:13:46.284Z,38.58
2023-04-02T16:16:03.492Z,44.90
2023-04-02T16:18:14.075Z,35.55
2023-04-02T16:20:26.278Z,17.08
2023-04-02T16:22:30.072Z,14.15
2023-04-02T16:24:31.457Z,36.60
2023-04-02T16:26:57.920Z,19.98
2023-04-02T16:29:11.674Z,22.98
2023-04-02T16:31:34.668Z,22.27
2023-04-02T16:34:04.146Z,21.55
2023-04-02T16:36:16.761Z,26.80
2023-04-02T16:38:39.068Z,21.80
2023-04-02T16:41:07.116Z,24.20
2023-04-02T16:43:10.141Z,20.35
2023-04-02T16:45:34.240Z,17.67
2023-04-02T16:47:51.022Z,18.20
2023-04-02T16:50:23.303Z,9.88
2023-04-02T16:52:40.244Z,8.90
2023-04-02T16:54:44.483Z,11.75
2023-04-02T16:57:07.252Z,12.40
2023-04-02T16:59:20.286Z,22.55
2023-04-02T17:01:32.500Z,21.33
2023-04-02T17:03:52.410Z,17.77
2023-04-02T17:06:16.595Z,19.50
2023-04-02T17:08:32.614Z,22.70
2023-04-02T17:10:51.054Z,23.38
2023-04-02T17:13:00.873Z,19.75
2023-04-02T17:15:24.807Z,26.02
2023-04-02T17:17:29.673Z,24.75
2023-04-02T17:19:32.630Z,28.05
2023-04-02T17:21:35.881Z,74.47
2023-04-02T17:23:56.427Z,9.93
2023-04-02T17:26:05.712Z,17.63
2023-04-02T17:28:15.321Z,9.10
2023-04-02T17:30:23.725Z,10.82
2023-04-02T17:32:31.722Z,7.10
2023-04-02T17:34:33.437Z,8.50
2023-04-02T17:36:57.048Z,35.00
2023-04-02T17:39:22.567Z,10.23
2023-04-02T17:41:40.267Z,7.38
2023-04-02T17:43:41.800Z,9.10
2023-04-02T17:46:03.358Z,15.25
2023-04-02T17:48:44.771Z,8.07
2023-04-02T17:51:04.521Z,8.70
2023-04-02T17:53:43.085Z,11.68
2023-04-02T17:56:12.821Z,7.75
2023-04-02T17:58:14.157Z,9.40
2023-04-02T18:00:41.691Z,10.13
2023-04-02T18:03:07.179Z,8.45
2023-04-02T18:05:08.717Z,10.20
2023-04-02T18:07:15.631Z,9.30
2023-04-02T18:09:29.330Z,7.80
2023-04-02T18:11:55.345Z,7.50
2023-04-02T18:14:00.671Z,8.15
2023-04-02T18:16:32.923Z,8.50
2023-04-02T18:18:48.362Z,12.90
2023-04-02T18:21:15.827Z,10.18
2023-04-02T18:23:36.248Z,10.23
2023-04-02T18:26:08.993Z,15.43
2023-04-02T18:28:29.125Z,11.13
2023-04-02T18:30:39.213Z,32.45
2023-04-02T18:33:07.728Z,7.45
2023-04-02T18:35:25.132Z,36.25
2023-04-02T18:38:11.496Z,44.03
2023-04-02T18:40:25.879Z,75.32
2023-04-02T18:42:58.042Z,38.63
2023-04-02T18:45:19.418Z,22.70
2023-04-02T18:47:27.306Z,48.80
2023-04-02T18:49:34.398Z,44.47
2023-04-02T18:51:39.388Z,19.92
2023-04-02T18:53:42.070Z,38.00
2023-04-02T18:56:07.324Z,32.92
2023-04-02T18:58:20.605Z,45.42
2023-04-02T19:00:32.960Z,20.95
2023-04-02T19:02:41.342Z,8.45
2023-04-02T19:04:49.808Z,14.15
2023-04-02T19:07:04.443Z,6.85
2023-04-02T19:09:27.538Z,7.35
2023-04-02T19:11:29.205Z,7.82
2023-04-02T19:13:30.587Z,7.13
2023-04-02T19:15:56.771Z,9.57
2023-04-02T19:18:25.932Z,9.60
2023-04-02T19:20:43.888Z,10.25
2023-04-02T19:23:36.802Z,10.23
2023-04-02T19:26:17.559Z,8.60
2023-04-02T19:28:29.868Z,7.28
2023-04-02T19:30:37.729Z,5.47
2023-04-02T19:32:51.203Z,4.15
2023-04-02T19:35:01.791Z,14.02
2023-04-02T19:37:12.843Z,16.80
2023-04-02T19:39:17.016Z,23.20
2023-04-02T19:41:37.581Z,17.45
2023-04-02T19:43:39.591Z,12.40
2023-04-02T19:45:44.073Z,15.00
2023-04-02T19:47:45.629Z,7.68
2023-04-02T19:49:47.286Z,4.53
2023-04-02T19:51:49.765Z,6.80
2023-04-02T19:53:51.380Z,6.25
2023-04-02T19:55:52.823Z,7.60
2023-04-02T19:58:00.945Z,6.13
2023-04-02T20:00:13.515Z,4.40
2023-04-02T20:02:15.103Z,5.43
2023-04-02T20:04:16.563Z,6.18
2023-04-02T20:06:18.736Z,4.35
2023-04-02T20:08:20.674Z,5.47
2023-04-02T20:10:23.116Z,8.70
2023-04-02T20:12:24.841Z,6.13
2023-04-02T20:14:26.524Z,6.75
2023-04-02T20:16:28.149Z,5.40
2023-04-02T20:18:30.261Z,4.95
2023-04-02T20:20:31.878Z,6.65
2023-04-02T20:22:33.330Z,5.32
2023-04-02T20:24:34.827Z,4.10
2023-04-02T20:26:36.504Z,4.78
2023-04-02T20:28:37.952Z,4.03
2023-04-02T20:30:39.570Z,4.93
2023-04-02T20:32:41.363Z,4.38
2023-04-02T20:34:43.024Z,5.22
2023-04-02T20:36:44.552Z,4.60
2023-04-02T20:38:46.025Z,4.57
2023-04-02T20:40:47.446Z,4.60
2023-04-02T20:42:48.907Z,5.10
2023-04-02T20:44:50.428Z,3.80
2023-04-02T20:46:51.821Z,4.10
2023-04-02T20:48:53.294Z,5.10
2023-04-02T20:50:54.859Z,4.70
2023-04-02T20:52:58.774Z,5.43
2023-04-02T20:55:00.304Z,4.00
2023-04-02T20:57:03.167Z,4.70
2023-04-02T20:59:04.635Z,5.03
2023-04-02T21:01:10.111Z,6.28
2023-04-02T21:03:12.078Z,5.30
2023-04-02T21:05:13.647Z,7.32
2023-04-02T21:07:15.297Z,8.75
2023-04-02T21:09:18.025Z,9.27
2023-04-02T21:11:19.914Z,6.33
2023-04-02T21:13:21.449Z,6.15
2023-04-02T21:15:23.030Z,8.05
2023-04-02T21:17:24.780Z,6.65
2023-04-02T21:19:26.413Z,8.77
2023-04-02T21:21:28.586Z,6.97
2023-04-02T21:23:31.793Z,7.60
2023-04-02T21:25:33.572Z,11.50
2023-04-02T21:27:35.218Z,13.57
2023-04-02T21:29:37.079Z,9.43
2023-04-02T21:31:40.131Z,5.78
2023-04-02T21:33:53.710Z,6.57
2023-04-02T21:35:55.108Z,9.27
2023-04-02T21:37:56.674Z,6.55
2023-04-02T21:39:58.140Z,26.20
2023-04-02T21:41:59.678Z,10.02
2023-04-02T21:44:02.724Z,11.38
2023-04-02T21:46:04.388Z,12.10
2023-04-02T21:48:06.001Z,20.52
2023-04-02T21:50:08.340Z,12.50
2023-04-02T21:52:10.009Z,31.48
2023-04-02T21:54:11.650Z,11.73
2023-04-02T21:56:18.886Z,15.30
2023-04-02T21:58:20.354Z,9.90
2023-04-02T22:00:21.959Z,14.98
2023-04-02T22:02:23.926Z,21.88
2023-04-02T22:04:26.265Z,10.70
2023-04-02T22:06:30.364Z,17.83
2023-04-02T22:08:32.223Z,9.70
2023-04-02T22:10:35.901Z,13.25
2023-04-02T22:12:37.495Z,9.95
2023-04-02T22:14:39.116Z,15.15
2023-04-02T22:16:41.484Z,15.63
2023-04-02T22:18:43.762Z,12.10
2023-04-02T22:20:45.230Z,11.93
2023-04-02T22:22:46.828Z,19.50
2023-04-02T22:24:48.267Z,20.80
2023-04-02T22:26:49.970Z,14.85
2023-04-02T22:28:51.555Z,11.85
2023-04-02T22:30:53.734Z,7.90
2023-04-02T22:32:55.406Z,12.75
2023-04-02T22:34:56.929Z,23.33
2023-04-02T22:36:58.352Z,7.30
2023-04-02T22:39:00.197Z,13.10
2023-04-02T22:41:13.105Z,14.95
2023-04-02T22:43:14.572Z,18.60
2023-04-02T22:45:16.056Z,23.05
2023-04-02T22:47:17.535Z,13.75
2023-04-02T22:49:19.338Z,6.32
2023-04-02T22:51:22.234Z,7.22
2023-04-02T22:53:23.834Z,9.98
2023-04-02T22:55:25.306Z,8.18
2023-04-02T22:57:26.800Z,6.95
2023-04-02T22:59:28.450Z,10.93
2023-04-02T23:01:33.091Z,9.45
2023-04-02T23:03:34.877Z,10.68
2023-04-02T23:05:36.290Z,9.38
2023-04-02T23:07:38.697Z,11.85
2023-04-02T23:09:40.097Z,7.32
2023-04-02T23:11:41.750Z,8.43
2023-04-02T23:13:44.476Z,8.40
2023-04-02T23:15:45.988Z,9.87
2023-04-02T23:17:47.478Z,8.10
2023-04-02T23:19:48.902Z,9.25
2023-04-02T23:21:50.344Z,6.95
2023-04-02T23:23:51.928Z,11.15
2023-04-02T23:26:06.656Z,11.32
2023-04-02T23:28:10.198Z,12.82
2023-04-02T23:30:11.983Z,9.07
2023-04-02T23:32:13.424Z,12.02
2023-04-02T23:34:14.814Z,7.78
2023-04-02T23:36:31.189Z,7.82
2023-04-02T23:38:32.607Z,7.32
2023-04-02T23:40:34.253Z,12.25
2023-04-02T23:42:35.918Z,11.52
2023-04-02T23:44:37.562Z,9.75
2023-04-02T23:46:38.977Z,7.20
2023-04-02T23:48:40.577Z,11.55
2023-04-02T23:50:42.361Z,12.00
2023-04-02T23:52:43.792Z,7.70
2023-04-02T23:54:45.415Z,9.00
2023-04-02T23:56:46.839Z,7.35
2023-04-02T23:58:49.007Z,7.93
